Time;durP1;ratioP1;P1;durP2;ratioP2;P2;SDS_P1;SDS_P2;PMS_P1;PMS_P2;Temp;Humidity;BMP_temperature;BMP_pressure;BME280_temperature;BME280_humidity;BME280_pressure;Samples;Min_cycle;Max_cycle;Signal;HPM_P1;HPM_P2
2023/06/23 00:01:39;;;;;;;19.00;5.30;;;;;;;18.76;100.00;100744.16;5054476;28;20446;-74
2023/06/23 00:04:05;;;;;;;10.13;4.87;;;;;;;18.67;100.00;100738.81;5053972;28;20507;-73
2023/06/23 00:06:32;;;;;;;11.03;5.17;;;;;;;18.67;100.00;100736.88;5053736;28;20540;-75
2023/06/23 00:09:00;;;;;;;11.83;5.10;;;;;;;18.66;100.00;100748.19;5053916;28;20473;-74
2023/06/23 00:11:28;;;;;;;11.70;5.00;;;;;;;18.56;100.00;100748.72;5053185;28;21015;-75
2023/06/23 00:13:56;;;;;;;14.30;5.23;;;;;;;18.54;100.00;100746.31;5053858;28;20496;-75
2023/06/23 00:16:23;;;;;;;10.43;4.70;;;;;;;18.56;100.00;100752.25;5053964;28;20454;-74
2023/06/23 00:18:50;;;;;;;18.83;4.60;;;;;;;18.60;100.00;100757.84;5053673;28;20504;-73
2023/06/23 00:21:18;;;;;;;17.23;5.13;;;;;;;18.58;100.00;100766.41;5053773;28;20530;-74
2023/06/23 00:23:44;;;;;;;10.57;4.80;;;;;;;18.57;100.00;100766.78;5053652;28;20446;-74
2023/06/23 00:26:11;;;;;;;9.33;4.37;;;;;;;18.60;100.00;100766.09;5053386;28;20458;-74
2023/06/23 00:28:38;;;;;;;9.80;4.70;;;;;;;18.53;100.00;100746.66;5053270;28;20925;-75
2023/06/23 00:31:06;;;;;;;9.17;4.60;;;;;;;18.53;100.00;100743.94;5053652;28;20835;-74
2023/06/23 00:33:32;;;;;;;9.50;4.57;;;;;;;18.57;100.00;100750.31;5053717;28;20927;-74
2023/06/23 00:35:59;;;;;;;10.07;4.73;;;;;;;18.58;100.00;100771.09;5053469;28;20545;-74
2023/06/23 00:38:26;;;;;;;10.53;4.87;;;;;;;18.55;100.00;100794.56;5053541;28;20434;-74
2023/06/23 00:40:52;;;;;;;9.10;4.60;;;;;;;18.58;100.00;100839.69;5053348;28;20485;-74
2023/06/23 00:43:19;;;;;;;10.77;4.90;;;;;;;18.62;100.00;100907.25;5053361;28;20485;-75
2023/06/23 00:45:46;;;;;;;13.43;4.70;;;;;;;18.57;100.00;100953.34;5053302;28;20486;-74
2023/06/23 00:48:15;;;;;;;11.23;4.73;;;;;;;18.53;100.00;100941.47;5053335;28;20516;-74
2023/06/23 00:50:43;;;;;;;9.00;4.30;;;;;;;18.56;100.00;100866.69;5053098;28;20485;-74
2023/06/23 00:53:10;;;;;;;11.87;4.90;;;;;;;18.60;100.00;100788.81;5053327;28;20797;-73
2023/06/23 00:55:37;;;;;;;10.10;5.20;;;;;;;18.61;100.00;100776.69;5052963;28;20513;-74
2023/06/23 00:58:06;;;;;;;13.17;5.27;;;;;;;18.58;100.00;100771.09;5053170;28;20455;-75
2023/06/23 01:00:33;;;;;;;10.97;5.07;;;;;;;18.58;100.00;100777.38;5053270;28;20453;-75
2023/06/23 01:03:01;;;;;;;10.53;5.20;;;;;;;18.55;100.00;100771.78;5053228;28;20564;-76
2023/06/23 01:05:34;;;;;;;12.43;5.30;;;;;;;18.58;100.00;100773.84;5053092;28;20839;-75
2023/06/23 01:08:11;;;;;;;11.03;4.97;;;;;;;18.62;100.00;100788.47;5052872;28;20547;-75
2023/06/23 01:10:44;;;;;;;14.13;6.13;;;;;;;18.63;100.00;100792.78;5052989;28;20446;-74
2023/06/23 01:13:18;;;;;;;12.40;5.80;;;;;;;18.63;100.00;100788.09;5052862;28;20973;-72
2023/06/23 01:15:50;;;;;;;12.93;5.60;;;;;;;18.63;100.00;100771.63;5052923;28;20478;-72
2023/06/23 01:18:27;;;;;;;12.07;5.63;;;;;;;18.67;100.00;100760.75;5052952;28;20879;-72
2023/06/23 01:21:01;;;;;;;13.90;4.87;;;;;;;18.65;100.00;100747.41;5052971;28;20446;-74
2023/06/23 01:24:06;;;;;;;11.60;4.37;;;;;;;18.66;100.00;100731.75;5053846;28;20446;-73
2023/06/23 01:26:58;;;;;;;12.27;5.50;;;;;;;18.66;100.00;100729.00;4976221;28;20454;-75
2023/06/23 01:29:30;;;;;;;10.03;4.90;;;;;;;18.58;100.00;100724.47;4975988;28;20508;-75
2023/06/23 01:32:03;;;;;;;10.47;5.90;;;;;;;18.59;100.00;100721.38;4976324;28;20452;-75
2023/06/23 01:34:36;;;;;;;9.80;4.97;;;;;;;18.59;100.00;100717.81;4976050;28;20470;-75
2023/06/23 01:37:08;;;;;;;12.07;4.80;;;;;;;18.58;100.00;100718.97;4975998;28;20453;-75
2023/06/23 01:39:38;;;;;;;10.47;4.57;;;;;;;18.55;100.00;100711.44;4976178;28;20458;-76
2023/06/23 01:42:09;;;;;;;10.87;5.20;;;;;;;18.55;100.00;100694.97;4975909;28;20536;-76
2023/06/23 01:44:39;;;;;;;9.60;4.60;;;;;;;18.56;100.00;100710.31;4975989;28;20476;-76
2023/06/23 01:47:12;;;;;;;11.27;5.73;;;;;;;18.57;100.00;100696.22;4975481;28;20856;-75
2023/06/23 01:49:39;;;;;;;8.50;4.30;;;;;;;18.61;100.00;100699.06;4975790;28;20567;-76
2023/06/23 01:52:08;;;;;;;10.30;5.10;;;;;;;18.61;100.00;100702.63;4976102;28;20461;-76
2023/06/23 01:54:38;;;;;;;8.20;4.30;;;;;;;18.65;100.00;100713.69;4975306;28;20901;-75
2023/06/23 01:57:07;;;;;;;11.60;4.40;;;;;;;18.64;100.00;100712.91;5006478;28;20444;-75
2023/06/23 01:59:38;;;;;;;12.87;3.97;;;;;;;18.63;100.00;100715.97;5056348;28;20482;-76
2023/06/23 02:02:06;;;;;;;11.43;4.80;;;;;;;18.63;100.00;100715.97;5056458;28;20484;-75
2023/06/23 02:04:34;;;;;;;11.70;5.37;;;;;;;18.62;100.00;100719.88;5056457;28;20466;-75
2023/06/23 02:07:02;;;;;;;8.63;3.77;;;;;;;18.64;100.00;100720.34;5056280;28;20503;-75
2023/06/23 02:09:32;;;;;;;8.90;4.30;;;;;;;18.65;100.00;100721.91;5056283;28;20449;-75
2023/06/23 02:12:03;;;;;;;10.90;3.90;;;;;;;18.63;100.00;100707.75;5055989;28;20477;-75
2023/06/23 02:14:31;;;;;;;11.50;4.63;;;;;;;18.63;100.00;100699.50;5056316;28;20476;-75
2023/06/23 02:17:00;;;;;;;9.17;4.20;;;;;;;18.64;100.00;100695.63;5056149;28;20540;-74
2023/06/23 02:19:28;;;;;;;8.00;3.97;;;;;;;18.62;100.00;100693.22;5055996;28;20446;-75
2023/06/23 02:21:56;;;;;;;11.10;4.33;;;;;;;18.61;100.00;100696.34;5055947;28;20478;-75
2023/06/23 02:24:24;;;;;;;8.73;3.90;;;;;;;18.59;100.00;100693.13;5056004;28;20890;-75
2023/06/23 02:26:51;;;;;;;9.50;4.00;;;;;;;18.62;100.00;100692.44;5055940;28;20945;-75
2023/06/23 02:29:19;;;;;;;9.77;3.93;;;;;;;18.64;100.00;100673.69;5055716;28;20473;-75
2023/06/23 02:31:46;;;;;;;12.60;5.17;;;;;;;18.62;100.00;100667.75;5055695;28;20438;-74
2023/06/23 02:34:14;;;;;;;10.23;4.50;;;;;;;18.59;100.00;100660.19;5055600;28;20531;-76
2023/06/23 02:36:46;;;;;;;10.90;3.63;;;;;;;18.55;100.00;100653.81;5055792;28;20937;-75
2023/06/23 02:39:17;;;;;;;8.97;4.07;;;;;;;18.52;100.00;100643.59;5055695;28;20909;-75
2023/06/23 02:41:46;;;;;;;8.70;3.70;;;;;;;18.53;100.00;100637.72;5055758;28;20497;-75
2023/06/23 02:44:15;;;;;;;13.90;4.50;;;;;;;18.52;100.00;100635.34;5055788;28;20508;-75
2023/06/23 02:46:45;;;;;;;11.70;4.63;;;;;;;18.49;100.00;100623.13;5055510;28;20945;-74
2023/06/23 02:49:21;;;;;;;8.00;3.77;;;;;;;18.51;100.00;100620.06;5055236;28;20570;-74
2023/06/23 02:51:51;;;;;;;14.47;4.40;;;;;;;18.45;100.00;100626.94;5055535;28;20495;-74
2023/06/23 02:54:19;;;;;;;10.00;4.50;;;;;;;18.45;100.00;100633.22;5055041;28;20490;-74
2023/06/23 02:56:47;;;;;;;7.87;3.30;;;;;;;18.47;100.00;100636.41;5055393;28;20473;-74
2023/06/23 02:59:18;;;;;;;6.90;2.97;;;;;;;18.46;100.00;100628.50;5055395;28;20443;-74
2023/06/23 03:01:48;;;;;;;8.50;3.50;;;;;;;18.39;100.00;100629.94;5055251;28;20460;-74
2023/06/23 03:04:16;;;;;;;9.80;4.00;;;;;;;18.37;100.00;100618.53;5054818;28;20895;-74
2023/06/23 03:06:44;;;;;;;9.80;4.30;;;;;;;18.35;100.00;100626.31;5055192;28;20492;-73
2023/06/23 03:09:11;;;;;;;9.23;3.97;;;;;;;18.30;100.00;100631.25;5054841;28;20832;-73
2023/06/23 03:11:38;;;;;;;13.60;4.33;;;;;;;18.31;100.00;100641.88;5054874;28;20926;-73
2023/06/23 03:14:06;;;;;;;9.37;3.90;;;;;;;18.37;100.00;100654.19;5055021;28;20438;-74
2023/06/23 03:16:37;;;;;;;8.20;3.60;;;;;;;18.42;100.00;100661.38;5055124;28;20442;-74
2023/06/23 03:19:12;;;;;;;9.67;4.00;;;;;;;18.44;100.00;100672.75;5055125;28;20430;-73
2023/06/23 03:21:41;;;;;;;9.07;4.00;;;;;;;18.45;100.00;100679.03;5055008;28;20484;-73
2023/06/23 03:24:13;;;;;;;10.50;4.57;;;;;;;18.49;100.00;100690.91;5054536;28;20453;-74
2023/06/23 03:26:46;;;;;;;12.30;4.50;;;;;;;18.45;100.00;100707.28;5054990;28;20414;-74
2023/06/23 03:29:14;;;;;;;11.83;4.63;;;;;;;18.48;100.00;100708.53;5054818;28;20561;-74
2023/06/23 03:31:44;;;;;;;8.00;3.70;;;;;;;18.50;100.00;100715.25;5054494;28;20540;-73
2023/06/23 03:34:23;;;;;;;15.00;4.70;;;;;;;18.49;100.00;100716.41;5055287;28;20442;-74
2023/06/23 03:36:52;;;;;;;11.33;4.03;;;;;;;18.53;100.00;100727.47;5054384;28;20428;-74
2023/06/23 03:39:22;;;;;;;8.23;4.30;;;;;;;18.53;100.00;100733.75;5054381;28;21008;-73
2023/06/23 03:41:50;;;;;;;11.30;4.93;;;;;;;18.57;100.00;100742.09;5055227;28;20878;-73
2023/06/23 03:44:23;;;;;;;11.00;4.07;;;;;;;18.56;100.00;100744.03;5054481;28;20458;-74
2023/06/23 03:46:53;;;;;;;8.87;4.30;;;;;;;18.63;100.00;100762.63;5053887;28;20521;-74
2023/06/23 03:49:23;;;;;;;12.13;4.73;;;;;;;18.67;100.00;100771.75;5054451;28;20466;-73
2023/06/23 03:51:55;;;;;;;9.00;3.97;;;;;;;18.65;100.00;100760.34;5054552;28;20481;-72
2023/06/23 03:54:24;;;;;;;9.27;4.13;;;;;;;18.64;100.00;100762.28;5054351;28;22321;-74
2023/06/23 03:56:54;;;;;;;11.67;5.77;;;;;;;18.58;100.00;100760.13;5054308;28;20526;-73
2023/06/23 03:59:24;;;;;;;13.13;5.33;;;;;;;18.62;100.00;100774.75;5054067;28;20435;-74
2023/06/23 04:01:52;;;;;;;9.17;4.17;;;;;;;18.64;100.00;100777.94;5054277;28;20422;-74
2023/06/23 04:04:22;;;;;;;10.97;5.33;;;;;;;18.53;100.00;100799.59;5054156;28;20555;-74
2023/06/23 04:06:50;;;;;;;13.23;5.10;;;;;;;18.52;100.00;100788.97;5054122;28;20434;-74
2023/06/23 04:09:20;;;;;;;12.70;5.50;;;;;;;18.56;100.00;100782.44;5053590;28;20531;-74
2023/06/23 04:11:49;;;;;;;12.50;5.23;;;;;;;18.56;100.00;100792.63;5053669;28;20795;-74
2023/06/23 04:14:16;;;;;;;10.20;4.77;;;;;;;18.60;100.00;100786.09;5053636;28;20953;-74
2023/06/23 04:16:45;;;;;;;11.63;5.10;;;;;;;18.59;100.00;100789.16;5053945;28;20473;-74
2023/06/23 04:19:13;;;;;;;8.10;3.77;;;;;;;18.62;100.00;100802.19;5053908;28;20485;-73
2023/06/23 04:21:40;;;;;;;10.87;4.87;;;;;;;18.61;100.00;100809.63;5053837;28;20444;-74
2023/06/23 04:24:09;;;;;;;9.57;4.40;;;;;;;18.53;100.00;100804.28;5053455;28;20892;-74
2023/06/23 04:26:38;;;;;;;9.50;3.87;;;;;;;18.54;100.00;100803.13;5053802;28;20449;-74
2023/06/23 04:29:07;;;;;;;8.53;4.20;;;;;;;18.54;100.00;100800.38;5053344;28;21054;-73
2023/06/23 04:31:35;;;;;;;15.60;4.13;;;;;;;18.55;100.00;100801.97;5053434;28;20536;-73
2023/06/23 04:34:01;;;;;;;10.23;4.87;;;;;;;18.63;100.00;100803.78;5053165;28;20941;-74
2023/06/23 04:36:36;;;;;;;9.47;4.53;;;;;;;18.65;100.00;100806.97;5053302;28;20478;-74
2023/06/23 04:39:09;;;;;;;16.07;4.90;;;;;;;18.65;100.00;100796.00;5053292;28;20873;-74
2023/06/23 04:41:39;;;;;;;10.70;4.60;;;;;;;18.65;100.00;100796.81;5053507;28;20430;-75
2023/06/23 04:44:09;;;;;;;9.27;4.20;;;;;;;18.64;100.00;100797.16;5053302;28;20481;-74
2023/06/23 04:46:41;;;;;;;10.90;5.03;;;;;;;18.63;100.00;100790.06;5053656;28;20442;-74
2023/06/23 04:49:09;;;;;;;11.60;5.43;;;;;;;18.61;100.00;100789.63;5053326;28;20561;-74
2023/06/23 04:51:40;;;;;;;13.67;5.20;;;;;;;18.59;100.00;100798.22;5053348;28;20473;-74
2023/06/23 04:54:12;;;;;;;9.73;4.00;;;;;;;18.56;100.00;100793.41;5053328;28;20800;-73
2023/06/23 04:56:45;;;;;;;8.60;4.00;;;;;;;18.60;100.00;100799.81;5053280;28;20430;-74
2023/06/23 04:59:14;;;;;;;8.80;4.30;;;;;;;18.60;100.00;100809.97;5053507;28;20433;-74
2023/06/23 05:01:43;;;;;;;11.20;4.10;;;;;;;18.58;100.00;100806.78;5052733;28;20530;-74
2023/06/23 05:04:12;;;;;;;9.70;3.77;;;;;;;18.59;100.00;100820.16;5052728;28;20450;-74
2023/06/23 05:06:40;;;;;;;15.63;5.77;;;;;;;18.59;100.00;100822.09;5052756;28;20442;-74
2023/06/23 05:09:08;;;;;;;9.37;5.30;;;;;;;18.58;100.00;100828.72;5052646;28;20492;-74
2023/06/23 05:11:36;;;;;;;19.23;5.00;;;;;;;18.55;100.00;100829.41;5052464;28;20917;-74
2023/06/23 05:14:07;;;;;;;9.90;4.70;;;;;;;18.59;100.00;100825.66;5052659;28;20442;-74
2023/06/23 05:16:34;;;;;;;8.70;4.40;;;;;;;18.58;100.00;100810.31;5052727;28;20482;-74
2023/06/23 05:19:04;;;;;;;11.23;4.10;;;;;;;18.57;100.00;100805.19;5052626;28;20449;-74
2023/06/23 05:21:32;;;;;;;10.70;5.00;;;;;;;18.51;100.00;100801.91;5052630;28;20955;-74
2023/06/23 05:24:01;;;;;;;9.80;4.87;;;;;;;18.52;100.00;100806.22;5052784;28;20446;-74
2023/06/23 05:26:33;;;;;;;8.97;4.03;;;;;;;18.54;100.00;100812.16;5052626;28;20450;-74
2023/06/23 05:29:04;;;;;;;9.93;4.67;;;;;;;18.53;100.00;100820.75;5052586;28;20976;-74
2023/06/23 05:31:36;;;;;;;11.00;4.80;;;;;;;18.52;100.00;100825.44;5052668;28;20918;-74
2023/06/23 05:34:03;;;;;;;9.80;3.60;;;;;;;18.52;100.00;100830.94;5052519;28;20419;-74
2023/06/23 05:36:31;;;;;;;10.80;5.33;;;;;;;18.50;100.00;100830.47;5052546;28;20434;-74
2023/06/23 05:39:00;;;;;;;9.97;4.70;;;;;;;18.44;100.00;100839.28;5052780;28;20459;-74
2023/06/23 05:41:27;;;;;;;12.70;4.80;;;;;;;18.43;100.00;100840.44;5052482;28;20525;-74
2023/06/23 05:43:53;;;;;;;9.63;4.27;;;;;;;18.42;100.00;100850.63;5052674;28;20532;-74
2023/06/23 05:46:24;;;;;;;9.43;3.90;;;;;;;18.44;100.00;100844.78;5052313;28;20527;-74
2023/06/23 05:48:54;;;;;;;11.30;3.73;;;;;;;18.47;100.00;100846.84;5052376;28;20520;-74
2023/06/23 05:51:25;;;;;;;11.53;4.63;;;;;;;18.51;100.00;100842.25;5052755;28;20856;-74
2023/06/23 05:54:00;;;;;;;8.53;3.87;;;;;;;18.53;100.00;100848.97;5052757;28;20431;-74
2023/06/23 05:56:32;;;;;;;9.23;4.47;;;;;;;18.53;100.00;100848.97;5052259;28;20457;-74
2023/06/23 05:59:05;;;;;;;10.40;4.50;;;;;;;18.50;100.00;100843.38;5052634;28;20426;-74
2023/06/23 06:01:35;;;;;;;9.40;3.40;;;;;;;18.53;100.00;100837.22;5052693;28;20525;-75
2023/06/23 06:04:08;;;;;;;8.50;4.53;;;;;;;18.54;100.00;100834.09;5052519;28;20488;-75
2023/06/23 06:06:37;;;;;;;10.07;4.07;;;;;;;18.52;100.00;100832.88;5052645;28;20432;-72
2023/06/23 06:09:06;;;;;;;9.87;4.27;;;;;;;18.56;100.00;100831.03;5052629;28;20535;-71
2023/06/23 06:11:35;;;;;;;9.10;3.50;;;;;;;18.57;100.00;100835.38;5056552;28;20529;-75
2023/06/23 06:14:03;;;;;;;15.00;3.90;;;;;;;18.58;100.00;100832.25;5056311;28;20442;-75
2023/06/23 06:16:32;;;;;;;8.93;4.10;;;;;;;18.60;100.00;100837.41;5056134;28;20948;-75
2023/06/23 06:19:01;;;;;;;9.57;4.50;;;;;;;18.59;100.00;100833.06;5055975;28;20987;-73
2023/06/23 06:21:32;;;;;;;8.63;4.10;;;;;;;18.54;100.00;100828.63;5056031;28;20446;-75
2023/06/23 06:24:00;;;;;;;9.00;3.83;;;;;;;18.56;100.00;100825.53;5056561;28;20442;-76
2023/06/23 06:26:27;;;;;;;8.37;4.33;;;;;;;18.56;100.00;100828.28;5056218;28;20537;-76
2023/06/23 06:28:55;;;;;;;9.83;3.90;;;;;;;18.58;100.00;100834.22;5056119;28;20532;-76
2023/06/23 06:31:23;;;;;;;7.67;3.33;;;;;;;18.61;100.00;100841.75;5055662;28;20814;-75
2023/06/23 06:33:53;;;;;;;9.57;4.60;;;;;;;18.65;100.00;100850.88;5055872;28;20490;-74
2023/06/23 06:36:21;;;;;;;10.53;4.57;;;;;;;18.68;100.00;100850.16;5055668;28;20541;-73
2023/06/23 06:38:52;;;;;;;8.90;4.03;;;;;;;18.70;100.00;100852.63;5055798;28;20513;-74
2023/06/23 06:41:20;;;;;;;10.00;3.30;;;;;;;18.66;100.00;100856.00;5056318;28;20436;-75
2023/06/23 06:43:47;;;;;;;9.10;4.23;;;;;;;18.68;100.00;100850.16;5055813;28;20530;-74
2023/06/23 06:46:15;;;;;;;9.23;4.30;;;;;;;18.67;100.00;100845.84;5055313;28;20989;-74
2023/06/23 06:48:46;;;;;;;9.43;4.00;;;;;;;18.71;100.00;100852.25;5055623;28;20470;-74
2023/06/23 06:51:14;;;;;;;9.30;4.50;;;;;;;18.74;100.00;100859.00;5055345;28;20473;-75
2023/06/23 06:53:40;;;;;;;7.83;3.70;;;;;;;18.72;100.00;100856.59;5055520;28;20442;-75
2023/06/23 06:56:09;;;;;;;11.40;4.63;;;;;;;18.73;100.00;100858.22;5055291;28;20477;-74
2023/06/23 06:58:36;;;;;;;9.33;4.20;;;;;;;18.74;100.00;100856.25;5055482;28;20479;-73
2023/06/23 07:01:04;;;;;;;9.90;4.60;;;;;;;18.73;100.00;100855.47;5055384;28;20533;-74
2023/06/23 07:03:33;;;;;;;9.57;3.87;;;;;;;18.77;100.00;100856.38;5055404;28;20532;-74
2023/06/23 07:06:00;;;;;;;9.67;4.37;;;;;;;18.79;100.00;100856.78;5055269;28;21059;-75
2023/06/23 07:08:26;;;;;;;13.23;5.13;;;;;;;18.78;100.00;100863.44;5055485;28;20533;-74
2023/06/23 07:10:53;;;;;;;11.23;4.53;;;;;;;18.76;100.00;100857.50;5054821;28;20568;-74
2023/06/23 07:13:21;;;;;;;10.70;4.80;;;;;;;18.79;100.00;100866.97;5055270;28;20525;-75
2023/06/23 07:15:47;;;;;;;10.13;4.83;;;;;;;18.79;100.00;100862.28;5055059;28;20554;-74
2023/06/23 07:18:14;;;;;;;11.43;5.07;;;;;;;18.77;100.00;100867.34;5055178;28;20443;-74
2023/06/23 07:20:40;;;;;;;20.53;5.40;;;;;;;18.77;100.00;100864.59;5054459;28;20529;-74
2023/06/23 07:23:08;;;;;;;10.97;5.40;;;;;;;18.77;100.00;100870.09;5054597;28;20446;-74
2023/06/23 07:25:35;;;;;;;10.60;4.77;;;;;;;18.81;100.00;100859.19;5054907;28;20466;-74
2023/06/23 07:28:01;;;;;;;8.20;3.80;;;;;;;18.84;100.00;100864.78;5054946;28;20533;-74
2023/06/23 07:30:29;;;;;;;8.30;4.60;;;;;;;18.88;100.00;100867.63;5054585;28;20486;-74
2023/06/23 07:32:56;;;;;;;10.17;4.50;;;;;;;18.89;100.00;100867.25;5054829;28;20473;-74
2023/06/23 07:35:22;;;;;;;10.73;5.20;;;;;;;18.98;100.00;100863.56;5054766;28;20498;-73
2023/06/23 07:37:49;;;;;;;25.93;5.63;;;;;;;19.05;100.00;100874.75;5054711;28;20450;-74
2023/06/23 07:40:16;;;;;;;11.67;5.50;;;;;;;19.02;100.00;100880.94;5054733;28;20448;-73
2023/06/23 07:42:42;;;;;;;9.67;4.50;;;;;;;19.01;100.00;100879.34;5054402;28;20937;-74
2023/06/23 07:45:10;;;;;;;9.70;4.50;;;;;;;18.91;100.00;100875.16;5054569;28;20466;-74
2023/06/23 07:47:38;;;;;;;11.27;5.83;;;;;;;18.87;100.00;100882.50;5054493;28;20517;-74
2023/06/23 07:50:06;;;;;;;20.03;6.47;;;;;;;18.90;100.00;100888.09;5054471;28;20540;-74
2023/06/23 07:52:32;;;;;;;11.20;5.53;;;;;;;18.92;100.00;100882.25;5054459;28;20484;-74
2023/06/23 07:55:00;;;;;;;8.70;4.30;;;;;;;18.90;100.00;100879.03;5054186;28;20485;-73
2023/06/23 07:57:27;;;;;;;13.83;5.67;;;;;;;18.83;100.00;100882.41;5054599;28;20442;-73
2023/06/23 07:59:53;;;;;;;11.70;5.50;;;;;;;18.85;100.00;100882.84;5054303;28;20895;-74
2023/06/23 08:02:20;;;;;;;11.43;4.80;;;;;;;18.87;100.00;100879.75;5054208;28;20453;-73
2023/06/23 08:04:48;;;;;;;9.43;4.53;;;;;;;18.87;100.00;100888.78;5054166;28;20562;-73
2023/06/23 08:07:14;;;;;;;13.57;6.23;;;;;;;18.84;100.00;100884.00;5054213;28;20459;-73
2023/06/23 08:09:41;;;;;;;13.30;7.10;;;;;;;18.80;100.00;100891.31;5054116;28;20829;-73
2023/06/23 08:12:09;;;;;;;11.87;6.90;;;;;;;18.84;100.00;100899.66;5053815;28;20485;-73
2023/06/23 08:14:35;;;;;;;12.77;6.43;;;;;;;18.85;100.00;100904.00;5053969;28;20466;-72
2023/06/23 08:17:02;;;;;;;13.13;6.23;;;;;;;18.90;100.00;100901.00;5053943;28;20453;-73
2023/06/23 08:19:30;;;;;;;14.80;6.83;;;;;;;18.94;100.00;100901.91;5053654;28;20474;-73
2023/06/23 08:21:58;;;;;;;10.10;5.50;;;;;;;18.98;100.00;100902.81;5053628;28;20957;-74
2023/06/23 08:24:24;;;;;;;12.53;6.53;;;;;;;19.03;100.00;100894.31;5054105;28;20466;-72
2023/06/23 08:26:51;;;;;;;13.30;7.67;;;;;;;19.06;100.00;100890.06;5053850;28;20541;-73
2023/06/23 08:29:17;;;;;;;14.07;7.10;;;;;;;19.03;100.00;100894.31;5053754;28;20442;-74
2023/06/23 08:31:44;;;;;;;13.40;7.43;;;;;;;19.06;100.00;100907.34;5053764;28;20925;-73
2023/06/23 08:34:11;;;;;;;12.70;7.00;;;;;;;19.11;100.00;100917.28;5053004;28;20482;-73
2023/06/23 08:36:37;;;;;;;11.77;6.33;;;;;;;19.15;100.00;100912.69;5053669;28;20442;-74
2023/06/23 08:39:05;;;;;;;14.87;7.67;;;;;;;19.20;100.00;100914.38;5053648;28;20446;-74
2023/06/23 08:41:35;;;;;;;17.10;6.97;;;;;;;19.25;100.00;100911.38;5053330;28;20438;-73
2023/06/23 08:44:02;;;;;;;12.93;6.57;;;;;;;19.18;100.00;100911.19;5053050;28;20442;-73
2023/06/23 08:46:32;;;;;;;11.20;5.77;;;;;;;19.05;100.00;100926.94;5053470;28;20449;-74
2023/06/23 08:49:06;;;;;;;13.87;6.10;;;;;;;19.02;100.00;100931.16;5053250;28;20935;-73
2023/06/23 08:51:33;;;;;;;11.10;5.30;;;;;;;19.05;100.00;100935.16;5053344;28;20911;-74
2023/06/23 08:54:00;;;;;;;11.23;5.30;;;;;;;19.00;100.00;100938.16;5053206;28;20478;-73
2023/06/23 08:56:29;;;;;;;9.37;4.67;;;;;;;19.06;100.00;100943.03;5052943;28;20964;-73
2023/06/23 08:58:56;;;;;;;11.70;4.60;;;;;;;19.03;100.00;100949.22;5053260;28;20469;-74
2023/06/23 09:01:22;;;;;;;12.77;5.30;;;;;;;18.95;100.00;100947.44;5053325;28;20466;-73
2023/06/23 09:03:49;;;;;;;9.80;5.20;;;;;;;18.89;100.00;100951.56;5053291;28;20515;-74
2023/06/23 09:06:15;;;;;;;10.30;5.10;;;;;;;18.87;100.00;100949.19;5052818;28;20549;-74
2023/06/23 09:08:42;;;;;;;10.13;5.30;;;;;;;18.87;100.00;100949.19;5053163;28;20442;-74
2023/06/23 09:11:09;;;;;;;9.20;4.33;;;;;;;18.94;100.00;100951.31;5052703;28;20478;-73
2023/06/23 09:13:41;;;;;;;9.03;3.80;;;;;;;18.96;100.00;100948.25;5053120;28;20446;-73
2023/06/23 09:16:10;;;;;;;10.90;4.70;;;;;;;18.93;100.00;100959.91;5052665;28;20475;-73
2023/06/23 09:18:40;;;;;;;9.50;4.70;;;;;;;18.95;100.00;100963.91;5053070;28;20502;-73
2023/06/23 09:21:07;;;;;;;10.47;4.80;;;;;;;18.95;100.00;100965.84;5053022;28;20431;-73
2023/06/23 09:23:35;;;;;;;9.60;4.90;;;;;;;18.89;100.00;100960.59;5052977;28;20872;-73
2023/06/23 09:26:03;;;;;;;9.50;5.20;;;;;;;18.94;100.00;100967.00;5052810;28;20843;-73
2023/06/23 09:28:31;;;;;;;13.83;6.50;;;;;;;19.02;100.00;100968.81;5052631;28;20949;-74
2023/06/23 09:31:01;;;;;;;13.93;6.67;;;;;;;19.09;100.00;100971.75;5052809;28;20478;-74
2023/06/23 09:33:28;;;;;;;12.37;6.00;;;;;;;19.15;100.00;100979.38;5052888;28;20822;-74
2023/06/23 09:35:56;;;;;;;11.97;6.30;;;;;;;19.16;100.00;100980.97;5052825;28;20481;-73
2023/06/23 09:38:24;;;;;;;14.43;5.80;;;;;;;19.17;100.00;100990.03;5052903;28;20438;-74
2023/06/23 09:41:03;;;;;;;11.13;4.87;;;;;;;18.99;100.00;100985.97;5052472;28;20538;-73
2023/06/23 09:43:30;;;;;;;13.50;6.73;;;;;;;18.98;100.00;100989.88;5052530;28;20435;-73
2023/06/23 09:45:56;;;;;;;13.00;5.83;;;;;;;18.98;100.00;100990.66;5055843;28;20604;-73
2023/06/23 09:48:24;;;;;;;10.90;5.77;;;;;;;18.90;100.00;100989.66;5056792;28;20456;-74
2023/06/23 09:51:01;;;;;;;10.30;5.13;;;;;;;18.83;100.00;100994.94;5056876;28;20576;-73
2023/06/23 09:53:33;;;;;;;12.50;5.63;;;;;;;18.80;100.00;100989.34;5056461;28;20473;-73
2023/06/23 09:56:00;;;;;;;9.90;5.67;;;;;;;18.79;100.00;100995.97;5056392;28;20482;-74
2023/06/23 09:58:31;;;;;;;10.27;4.60;;;;;;;18.85;100.00;100989.88;5056861;28;20529;-73
2023/06/23 10:01:01;;;;;;;10.93;5.00;;;;;;;18.87;100.00;100993.09;5056776;28;20434;-73
2023/06/23 10:03:30;;;;;;;11.33;5.13;;;;;;;18.90;100.00;100992.41;5056239;28;20529;-73
2023/06/23 10:05:57;;;;;;;9.60;4.73;;;;;;;18.91;100.00;100998.69;5056088;28;21050;-73
2023/06/23 10:08:25;;;;;;;10.80;5.10;;;;;;;18.90;100.00;101005.31;5056277;28;20485;-73
2023/06/23 10:10:52;;;;;;;10.20;4.07;;;;;;;18.85;100.00;101009.09;5056488;28;20481;-74
2023/06/23 10:13:19;;;;;;;8.50;3.70;;;;;;;18.82;100.00;101009.03;5056162;28;20472;-74
2023/06/23 10:15:47;;;;;;;10.23;4.10;;;;;;;18.79;100.00;101004.22;5056361;28;20898;-73
2023/06/23 10:18:14;;;;;;;8.10;3.03;;;;;;;18.78;100.00;101008.91;5056213;28;20859;-74
2023/06/23 10:20:42;;;;;;;6.47;2.87;;;;;;;18.81;100.00;101007.41;5055964;28;20998;-75
2023/06/23 10:23:09;;;;;;;6.93;2.90;;;;;;;18.86;100.00;101007.97;5056217;28;20516;-74
2023/06/23 10:25:37;;;;;;;12.43;4.70;;;;;;;18.92;100.00;101007.75;5055952;28;20500;-73
2023/06/23 10:28:07;;;;;;;6.90;2.93;;;;;;;18.94;100.00;101010.91;5056059;28;20446;-73
2023/06/23 10:30:34;;;;;;;8.57;3.23;;;;;;;18.95;100.00;101018.00;5056108;28;20478;-73
2023/06/23 10:33:03;;;;;;;7.83;3.37;;;;;;;19.02;100.00;101016.28;5056099;28;20442;-74
2023/06/23 10:35:31;;;;;;;7.47;3.17;;;;;;;19.00;100.00;101021.31;5055896;28;20454;-74
2023/06/23 10:38:03;;;;;;;6.90;3.20;;;;;;;18.99;100.00;101016.16;5055915;28;20452;-74
2023/06/23 10:40:36;;;;;;;7.53;2.70;;;;;;;18.99;100.00;101018.91;5056092;28;20437;-76
2023/06/23 10:43:05;;;;;;;7.20;2.80;;;;;;;18.94;100.00;101019.16;5055890;28;20445;-76
2023/06/23 10:45:32;;;;;;;8.23;3.47;;;;;;;19.01;100.00;101022.13;5056185;28;20462;-75
2023/06/23 10:47:59;;;;;;;8.20;3.03;;;;;;;19.05;100.00;101028.53;5055628;28;21005;-74
2023/06/23 10:50:29;;;;;;;8.60;3.77;;;;;;;19.08;100.00;101036.03;5055630;28;20573;-72
2023/06/23 10:52:57;;;;;;;8.20;3.60;;;;;;;19.05;100.00;101032.06;5055637;28;20442;-74
2023/06/23 10:55:57;;;;;;;9.43;3.53;;;;;;;19.04;100.00;101038.72;5054950;28;20482;-74
2023/06/23 10:58:24;;;;;;;10.23;4.20;;;;;;;19.05;100.00;101042.25;5011159;28;20520;-72
2023/06/23 11:01:00;;;;;;;9.30;4.30;;;;;;;19.03;100.00;101050.81;5055073;28;20937;-74
2023/06/23 11:03:30;;;;;;;8.60;3.93;;;;;;;19.00;100.00;101058.97;5055303;28;20488;-73
2023/06/23 11:05:59;;;;;;;7.57;2.67;;;;;;;18.98;100.00;101059.28;5054991;28;20501;-73
2023/06/23 11:08:31;;;;;;;9.33;3.80;;;;;;;18.94;100.00;101071.31;5054985;28;20957;-73
2023/06/23 11:11:03;;;;;;;6.80;2.77;;;;;;;18.89;100.00;101064.91;5055075;28;20482;-74
2023/06/23 11:13:44;;;;;;;12.00;3.63;;;;;;;18.90;100.00;101071.19;5055453;28;20430;-74
2023/06/23 11:16:15;;;;;;;7.73;3.43;;;;;;;18.90;100.00;101074.78;5054903;28;20913;-74
2023/06/23 11:18:52;;;;;;;9.73;3.83;;;;;;;18.93;100.00;101077.97;5054814;28;20801;-74
2023/06/23 11:21:20;;;;;;;11.40;3.90;;;;;;;18.88;100.00;101082.53;5055212;28;20454;-74